sensor_id;sensor_type;location;lat;lon;timestamp;pressure;altitude;pressure_sealevel;temperature;humidity
26489;BME280;14169;43.684;10.484;2023-03-26T00:00:46;101537.97;;;13.60;100.00
26489;BME280;14169;43.684;10.484;2023-03-26T00:03:15;101538.66;;;13.66;100.00
26489;BME280;14169;43.684;10.484;2023-03-26T00:05:42;101538.50;;;13.71;100.00
26489;BME280;14169;43.684;10.484;2023-03-26T00:08:07;101539.25;;;13.74;100.00
26489;BME280;14169;43.684;10.484;2023-03-26T00:10:34;101537.44;;;13.76;100.00
26489;BME280;14169;43.684;10.484;2023-03-26T00:13:01;101534.69;;;13.81;100.00
26489;BME280;14169;43.684;10.484;2023-03-26T00:15:27;101539.81;;;13.84;100.00
26489;BME280;14169;43.684;10.484;2023-03-26T00:17:52;101534.56;;;13.84;100.00
26489;BME280;14169;43.684;10.484;2023-03-26T00:20:18;101537.91;;;13.89;100.00
26489;BME280;14169;43.684;10.484;2023-03-26T00:22:44;101529.13;;;13.90;100.00
26489;BME280;14169;43.684;10.484;2023-03-26T00:25:09;101547.34;;;13.94;100.00
26489;BME280;14169;43.684;10.484;2023-03-26T00:27:35;101546.31;;;13.98;100.00
26489;BME280;14169;43.684;10.484;2023-03-26T00:30:01;101542.75;;;14.01;100.00
26489;BME280;14169;43.684;10.484;2023-03-26T00:32:27;101530.50;;;14.01;100.00
26489;BME280;14169;43.684;10.484;2023-03-26T00:34:54;101534.78;;;14.04;100.00
26489;BME280;14169;43.684;10.484;2023-03-26T00:37:21;101527.72;;;14.06;100.00
26489;BME280;14169;43.684;10.484;2023-03-26T00:39:54;101520.66;;;14.08;100.00
26489;BME280;14169;43.684;10.484;2023-03-26T00:42:24;101521.38;;;14.13;100.00
26489;BME280;14169;43.684;10.484;2023-03-26T00:44:50;101519.56;;;14.15;100.00
26489;BME280;14169;43.684;10.484;2023-03-26T00:47:25;101516.81;;;14.18;100.00
26489;BME280;14169;43.684;10.484;2023-03-26T00:49:51;101515.94;;;14.19;100.00
26489;BME280;14169;43.684;10.484;2023-03-26T00:52:17;101511.53;;;14.19;100.00
26489;BME280;14169;43.684;10.484;2023-03-26T00:54:46;101516.63;;;14.24;100.00
26489;BME280;14169;43.684;10.484;2023-03-26T00:57:12;101511.28;;;14.27;100.00
26489;BME280;14169;43.684;10.484;2023-03-26T00:59:38;101512.19;;;14.26;100.00
26489;BME280;14169;43.684;10.484;2023-03-26T01:02:05;101502.56;;;14.26;100.00
26489;BME280;14169;43.684;10.484;2023-03-26T01:04:33;101491.22;;;14.26;100.00
26489;BME280;14169;43.684;10.484;2023-03-26T01:07:09;101492.22;;;14.22;100.00
26489;BME280;14169;43.684;10.484;2023-03-26T01:09:39;101489.59;;;14.22;100.00
26489;BME280;14169;43.684;10.484;2023-03-26T01:12:09;101478.25;;;14.21;100.00
26489;BME280;14169;43.684;10.484;2023-03-26T01:14:36;101479.88;;;14.25;100.00
26489;BME280;14169;43.684;10.484;2023-03-26T01:17:04;101468.50;;;14.26;100.00
26489;BME280;14169;43.684;10.484;2023-03-26T01:23:01;101473.59;;;14.29;100.00
26489;BME280;14169;43.684;10.484;2023-03-26T01:25:33;101464.81;;;14.32;100.00
26489;BME280;14169;43.684;10.484;2023-03-26T01:28:03;101464.81;;;14.32;100.00
26489;BME280;14169;43.684;10.484;2023-03-26T01:31:11;101451.72;;;14.32;100.00
26489;BME280;14169;43.684;10.484;2023-03-26T01:36:09;101452.50;;;14.34;100.00
26489;BME280;14169;43.684;10.484;2023-03-26T01:39:23;101439.34;;;14.36;100.00
26489;BME280;14169;43.684;10.484;2023-03-26T01:42:11;101436.56;;;14.40;100.00
26489;BME280;14169;43.684;10.484;2023-03-26T01:47:09;101427.75;;;14.43;100.00
26489;BME280;14169;43.684;10.484;2023-03-26T01:49:36;101423.34;;;14.43;100.00
26489;BME280;14169;43.684;10.484;2023-03-26T01:52:09;101425.16;;;14.41;100.00
26489;BME280;14169;43.684;10.484;2023-03-26T01:54:36;101429.59;;;14.39;100.00
26489;BME280;14169;43.684;10.484;2023-03-26T01:57:09;101419.19;;;14.38;100.00
26489;BME280;14169;43.684;10.484;2023-03-26T02:05:32;101407.06;;;14.35;100.00
26489;BME280;14169;43.684;10.484;2023-03-26T02:08:18;101415.03;;;14.32;100.00
26489;BME280;14169;43.684;10.484;2023-03-26T02:10:50;101409.69;;;14.35;100.00
26489;BME280;14169;43.684;10.484;2023-03-26T02:13:17;101417.47;;;14.37;100.00
26489;BME280;14169;43.684;10.484;2023-03-26T02:16:16;101411.31;;;14.38;100.00
26489;BME280;14169;43.684;10.484;2023-03-26T02:18:42;101411.38;;;14.36;100.00
26489;BME280;14169;43.684;10.484;2023-03-26T02:21:11;101413.94;;;14.38;100.00
26489;BME280;14169;43.684;10.484;2023-03-26T02:23:38;101412.25;;;14.37;100.00
26489;BME280;14169;43.684;10.484;2023-03-26T02:26:09;101407.78;;;14.39;100.00
26489;BME280;14169;43.684;10.484;2023-03-26T02:28:35;101407.88;;;14.36;100.00
26489;BME280;14169;43.684;10.484;2023-03-26T02:31:00;101401.00;;;14.33;100.00
26489;BME280;14169;43.684;10.484;2023-03-26T02:33:29;101407.09;;;14.33;100.00
26489;BME280;14169;43.684;10.484;2023-03-26T02:35:56;101404.56;;;14.30;100.00
26489;BME280;14169;43.684;10.484;2023-03-26T02:38:29;101388.91;;;14.29;100.00
26489;BME280;14169;43.684;10.484;2023-03-26T02:40:58;101401.16;;;14.28;100.00
26489;BME280;14169;43.684;10.484;2023-03-26T02:43:23;101391.53;;;14.29;100.00
26489;BME280;14169;43.684;10.484;2023-03-26T02:45:49;101393.34;;;14.27;100.00
26489;BME280;14169;43.684;10.484;2023-03-26T02:48:14;101390.75;;;14.25;100.00
26489;BME280;14169;43.684;10.484;2023-03-26T02:50:40;101383.75;;;14.26;100.00
26489;BME280;14169;43.684;10.484;2023-03-26T02:53:06;101388.19;;;14.24;100.00
26489;BME280;14169;43.684;10.484;2023-03-26T02:55:32;101387.31;;;14.25;100.00
26489;BME280;14169;43.684;10.484;2023-03-26T02:57:57;101382.97;;;14.24;100.00
26489;BME280;14169;43.684;10.484;2023-03-26T03:00:23;101388.13;;;14.25;100.00
26489;BME280;14169;43.684;10.484;2023-03-26T03:02:50;101386.38;;;14.26;100.00
26489;BME280;14169;43.684;10.484;2023-03-26T03:05:17;101384.69;;;14.25;100.00
26489;BME280;14169;43.684;10.484;2023-03-26T03:07:44;101383.81;;;14.24;100.00
26489;BME280;14169;43.684;10.484;2023-03-26T03:10:11;101387.31;;;14.25;100.00
26489;BME280;14169;43.684;10.484;2023-03-26T03:12:39;101385.56;;;14.24;100.00
26489;BME280;14169;43.684;10.484;2023-03-26T03:15:05;101381.25;;;14.23;100.00
26489;BME280;14169;43.684;10.484;2023-03-26T03:17:31;101377.78;;;14.22;100.00
26489;BME280;14169;43.684;10.484;2023-03-26T03:19:56;101380.47;;;14.21;100.00
26489;BME280;14169;43.684;10.484;2023-03-26T03:22:22;101381.34;;;14.20;100.00
26489;BME280;14169;43.684;10.484;2023-03-26T03:24:50;101372.69;;;14.18;100.00
26489;BME280;14169;43.684;10.484;2023-03-26T03:27:17;101373.50;;;14.20;100.00
26489;BME280;14169;43.684;10.484;2023-03-26T03:29:44;101379.59;;;14.20;100.00
26489;BME280;14169;43.684;10.484;2023-03-26T03:32:10;101379.59;;;14.20;100.00
26489;BME280;14169;43.684;10.484;2023-03-26T03:34:36;101370.88;;;14.20;100.00
26489;BME280;14169;43.684;10.484;2023-03-26T03:37:03;101372.63;;;14.19;100.00
26489;BME280;14169;43.684;10.484;2023-03-26T03:39:29;101366.50;;;14.20;100.00
26489;BME280;14169;43.684;10.484;2023-03-26T03:41:54;101368.25;;;14.20;100.00
26489;BME280;14169;43.684;10.484;2023-03-26T03:44:19;101369.97;;;14.21;100.00
26489;BME280;14169;43.684;10.484;2023-03-26T03:46:45;101363.09;;;14.18;100.00
26489;BME280;14169;43.684;10.484;2023-03-26T03:49:13;101367.41;;;14.19;100.00
26489;BME280;14169;43.684;10.484;2023-03-26T03:51:38;101368.31;;;14.18;100.00
26489;BME280;14169;43.684;10.484;2023-03-26T03:54:05;101368.38;;;14.17;100.00
26489;BME280;14169;43.684;10.484;2023-03-26T03:56:30;101373.66;;;14.15;100.00
26489;BME280;14169;43.684;10.484;2023-03-26T03:58:56;101373.63;;;14.17;100.00
26489;BME280;14169;43.684;10.484;2023-03-26T04:01:22;101373.63;;;14.17;100.00
26489;BME280;14169;43.684;10.484;2023-03-26T04:03:48;101372.75;;;14.16;100.00
26489;BME280;14169;43.684;10.484;2023-03-26T04:06:14;101371.03;;;14.15;100.00
26489;BME280;14169;43.684;10.484;2023-03-26T04:08:43;101364.09;;;14.14;100.00
26489;BME280;14169;43.684;10.484;2023-03-26T04:11:09;101371.97;;;14.14;100.00
26489;BME280;14169;43.684;10.484;2023-03-26T04:13:34;101365.78;;;14.15;100.00
26489;BME280;14169;43.684;10.484;2023-03-26T04:16:00;101361.47;;;14.14;100.00
26489;BME280;14169;43.684;10.484;2023-03-26T04:18:25;101365.00;;;14.13;100.00
26489;BME280;14169;43.684;10.484;2023-03-26T04:20:52;101363.25;;;14.14;100.00
26489;BME280;14169;43.684;10.484;2023-03-26T04:23:19;101357.94;;;14.15;100.00
26489;BME280;14169;43.684;10.484;2023-03-26T04:25:49;101364.09;;;14.14;100.00
26489;BME280;14169;43.684;10.484;2023-03-26T04:30:56;101369.41;;;14.13;100.00
26489;BME280;14169;43.684;10.484;2023-03-26T04:33:28;101375.47;;;14.13;100.00
26489;BME280;14169;43.684;10.484;2023-03-26T04:35:54;101371.09;;;14.14;100.00
26489;BME280;14169;43.684;10.484;2023-03-26T04:38:26;101376.47;;;14.11;100.00
26489;BME280;14169;43.684;10.484;2023-03-26T04:40:51;101372.06;;;14.11;100.00
26489;BME280;14169;43.684;10.484;2023-03-26T04:43:17;101370.44;;;14.09;100.00
26489;BME280;14169;43.684;10.484;2023-03-26T04:45:43;101379.13;;;14.09;100.00
26489;BME280;14169;43.684;10.484;2023-03-26T04:48:11;101369.63;;;14.07;100.00
26489;BME280;14169;43.684;10.484;2023-03-26T04:50:40;101377.34;;;14.10;100.00
26489;BME280;14169;43.684;10.484;2023-03-26T04:53:10;101373.03;;;14.09;100.00
26489;BME280;14169;43.684;10.484;2023-03-26T04:55:42;101364.25;;;14.10;100.00
26489;BME280;14169;43.684;10.484;2023-03-26T04:58:09;101358.97;;;14.11;100.00
26489;BME280;14169;43.684;10.484;2023-03-26T05:00:39;101370.22;;;14.13;100.00
26489;BME280;14169;43.684;10.484;2023-03-26T05:03:04;101373.78;;;14.12;100.00
26489;BME280;14169;43.684;10.484;2023-03-26T05:05:30;101371.91;;;14.16;100.00
26489;BME280;14169;43.684;10.484;2023-03-26T05:07:55;101373.63;;;14.17;100.00
26489;BME280;14169;43.684;10.484;2023-03-26T05:10:22;101374.53;;;14.16;100.00
26489;BME280;14169;43.684;10.484;2023-03-26T05:12:47;101377.19;;;14.14;100.00
26489;BME280;14169;43.684;10.484;2023-03-26T05:15:14;101378.91;;;14.15;100.00
26489;BME280;14169;43.684;10.484;2023-03-26T05:17:40;101370.19;;;14.15;100.00
26489;BME280;14169;43.684;10.484;2023-03-26T05:20:14;101368.47;;;14.14;100.00
26489;BME280;14169;43.684;10.484;2023-03-26T05:22:41;101374.53;;;14.16;100.00
26489;BME280;14169;43.684;10.484;2023-03-26T05:25:07;101379.88;;;14.13;100.00
26489;BME280;14169;43.684;10.484;2023-03-26T05:27:33;101374.66;;;14.13;100.00
26489;BME280;14169;43.684;10.484;2023-03-26T05:30:03;101371.22;;;14.11;100.00
26489;BME280;14169;43.684;10.484;2023-03-26T05:32:30;101367.69;;;14.12;100.00
26489;BME280;14169;43.684;10.484;2023-03-26T05:34:55;101378.91;;;14.15;100.00
26489;BME280;14169;43.684;10.484;2023-03-26T05:37:21;101376.25;;;14.17;100.00
26489;BME280;14169;43.684;10.484;2023-03-26T05:39:53;101369.34;;;14.14;100.00
26489;BME280;14169;43.684;10.484;2023-03-26T05:42:19;101369.28;;;14.16;100.00
26489;BME280;14169;43.684;10.484;2023-03-26T05:44:44;101369.28;;;14.16;100.00
26489;BME280;14169;43.684;10.484;2023-03-26T05:47:10;101370.31;;;14.12;100.00
26489;BME280;14169;43.684;10.484;2023-03-26T05:49:35;101372.13;;;14.10;100.00
26489;BME280;14169;43.684;10.484;2023-03-26T05:52:01;101367.00;;;14.07;100.00
26489;BME280;14169;43.684;10.484;2023-03-26T05:54:26;101361.75;;;14.07;100.00
26489;BME280;14169;43.684;10.484;2023-03-26T05:56:52;101366.16;;;14.06;100.00
26489;BME280;14169;43.684;10.484;2023-03-26T05:59:18;101374.81;;;14.08;100.00
26489;BME280;14169;43.684;10.484;2023-03-26T06:01:43;101380.03;;;14.08;100.00
26489;BME280;14169;43.684;10.484;2023-03-26T06:04:11;101382.59;;;14.10;100.00
26489;BME280;14169;43.684;10.484;2023-03-26T06:06:37;101378.09;;;14.13;100.00
26489;BME280;14169;43.684;10.484;2023-03-26T06:09:03;101380.56;;;14.18;100.00
26489;BME280;14169;43.684;10.484;2023-03-26T06:11:29;101383.19;;;14.18;100.00
26489;BME280;14169;43.684;10.484;2023-03-26T06:13:56;101380.56;;;14.18;100.00
26489;BME280;14169;43.684;10.484;2023-03-26T06:16:21;101383.88;;;14.23;100.00
26489;BME280;14169;43.684;10.484;2023-03-26T06:18:47;101369.78;;;14.25;100.00
26489;BME280;14169;43.684;10.484;2023-03-26T06:21:15;101368.81;;;14.28;100.00
26489;BME280;14169;43.684;10.484;2023-03-26T06:23:40;101367.78;;;14.33;100.00
26489;BME280;14169;43.684;10.484;2023-03-26T06:26:05;101360.47;;;14.42;100.00
26489;BME280;14169;43.684;10.484;2023-03-26T06:28:32;101357.78;;;14.43;100.00
26489;BME280;14169;43.684;10.484;2023-03-26T06:30:58;101361.22;;;14.45;100.00
26489;BME280;14169;43.684;10.484;2023-03-26T06:33:25;101363.00;;;14.45;100.00
26489;BME280;14169;43.684;10.484;2023-03-26T06:35:51;101352.09;;;14.55;100.00
26489;BME280;14169;43.684;10.484;2023-03-26T06:38:16;101351.84;;;14.61;100.00
26489;BME280;14169;43.684;10.484;2023-03-26T06:40:42;101347.16;;;14.69;100.00
26489;BME280;14169;43.684;10.484;2023-03-26T06:43:07;101345.31;;;14.71;100.00
26489;BME280;14169;43.684;10.484;2023-03-26T06:45:33;101353.72;;;14.81;100.00
26489;BME280;14169;43.684;10.484;2023-03-26T06:47:58;101364.81;;;14.87;100.00
26489;BME280;14169;43.684;10.484;2023-03-26T06:50:25;101359.78;;;15.03;100.00
26489;BME280;14169;43.684;10.484;2023-03-26T06:52:53;101350.88;;;15.07;100.00
26489;BME280;14169;43.684;10.484;2023-03-26T06:55:18;101352.19;;;15.18;100.00
26489;BME280;14169;43.684;10.484;2023-03-26T06:57:50;101353.78;;;15.21;100.00
26489;BME280;14169;43.684;10.484;2023-03-26T07:00:16;101346.41;;;15.31;100.00
26489;BME280;14169;43.684;10.484;2023-03-26T07:02:42;101340.06;;;15.36;100.00
26489;BME280;14169;43.684;10.484;2023-03-26T07:05:07;101347.78;;;15.41;100.00
26489;BME280;14169;43.684;10.484;2023-03-26T07:07:35;101355.88;;;15.35;100.00
26489;BME280;14169;43.684;10.484;2023-03-26T07:10:02;101352.25;;;15.39;100.00
26489;BME280;14169;43.684;10.484;2023-03-26T07:12:27;101348.50;;;15.44;100.00
26489;BME280;14169;43.684;10.484;2023-03-26T07:14:53;101333.97;;;15.56;100.00
26489;BME280;14169;43.684;10.484;2023-03-26T07:17:18;101333.56;;;15.65;100.00
26489;BME280;14169;43.684;10.484;2023-03-26T07:19:44;101333.25;;;15.72;100.00
26489;BME280;14169;43.684;10.484;2023-03-26T07:22:14;101327.66;;;15.80;100.00
26489;BME280;14169;43.684;10.484;2023-03-26T07:24:44;101326.53;;;15.85;100.00
26489;BME280;14169;43.684;10.484;2023-03-26T07:30:41;101335.44;;;16.01;100.00
26489;BME280;14169;43.684;10.484;2023-03-26T07:46:59;101320.91;;;16.69;100.00
26489;BME280;14169;43.684;10.484;2023-03-26T07:49:26;101322.25;;;16.77;100.00
26489;BME280;14169;43.684;10.484;2023-03-26T07:51:53;101321.06;;;16.84;100.00
26489;BME280;14169;43.684;10.484;2023-03-26T07:54:19;101322.41;;;17.10;100.00
26489;BME280;14169;43.684;10.484;2023-03-26T07:56:52;101318.91;;;17.10;100.00
26489;BME280;14169;43.684;10.484;2023-03-26T08:05:15;101292.63;;;17.44;100.00
26489;BME280;14169;43.684;10.484;2023-03-26T08:16:11;101291.69;;;17.62;100.00
26489;BME280;14169;43.684;10.484;2023-03-26T08:21:44;101292.31;;;17.83;100.00
26489;BME280;14169;43.684;10.484;2023-03-26T08:29:53;101280.63;;;18.04;100.00
26489;BME280;14169;43.684;10.484;2023-03-26T08:32:22;101273.91;;;17.98;100.00
26489;BME280;14169;43.684;10.484;2023-03-26T08:34:48;101272.81;;;18.02;100.00
26489;BME280;14169;43.684;10.484;2023-03-26T08:37:13;101272.31;;;18.11;100.00
26489;BME280;14169;43.684;10.484;2023-03-26T08:39:39;101263.50;;;18.28;100.00
26489;BME280;14169;43.684;10.484;2023-03-26T08:48:55;101255.41;;;18.46;100.00
26489;BME280;14169;43.684;10.484;2023-03-26T08:56:18;101238.25;;;18.22;100.00
26489;BME280;14169;43.684;10.484;2023-03-26T09:29:47;101207.72;;;18.03;100.00
26489;BME280;14169;43.684;10.484;2023-03-26T09:40:53;101186.59;;;18.65;100.00
26489;BME280;14169;43.684;10.484;2023-03-26T09:49:30;101174.00;;;19.70;100.00
26489;BME280;14169;43.684;10.484;2023-03-26T10:00:46;101166.63;;;21.09;100.00
26489;BME280;14169;43.684;10.484;2023-03-26T10:06:11;101163.63;;;20.75;100.00
26489;BME280;14169;43.684;10.484;2023-03-26T10:14:31;101160.56;;;20.28;100.00
26489;BME280;14169;43.684;10.484;2023-03-26T10:30:32;101139.53;;;20.00;100.00
26489;BME280;14169;43.684;10.484;2023-03-26T10:36:04;101137.06;;;19.97;100.00
26489;BME280;14169;43.684;10.484;2023-03-26T10:41:48;101129.50;;;19.91;100.00
26489;BME280;14169;43.684;10.484;2023-03-26T10:47:23;101115.91;;;19.97;100.00
26489;BME280;14169;43.684;10.484;2023-03-26T10:50:19;101117.41;;;19.87;100.00
26489;BME280;14169;43.684;10.484;2023-03-26T10:53:30;101112.63;;;19.79;100.00
26489;BME280;14169;43.684;10.484;2023-03-26T10:56:13;101102.91;;;19.80;100.00
26489;BME280;14169;43.684;10.484;2023-03-26T10:58:39;101103.09;;;19.77;100.00
26489;BME280;14169;43.684;10.484;2023-03-26T11:01:10;101092.56;;;19.89;100.00
26489;BME280;14169;43.684;10.484;2023-03-26T11:03:46;101084.81;;;19.86;100.00
26489;BME280;14169;43.684;10.484;2023-03-26T11:06:29;101085.25;;;19.66;100.00
26489;BME280;14169;43.684;10.484;2023-03-26T11:11:51;101077.53;;;19.63;100.00
26489;BME280;14169;43.684;10.484;2023-03-26T11:14:45;101081.88;;;19.64;100.00
26489;BME280;14169;43.684;10.484;2023-03-26T11:19:57;101063.28;;;19.66;100.00
26489;BME280;14169;43.684;10.484;2023-03-26T11:30:31;101033.59;;;19.75;100.00
26489;BME280;14169;43.684;10.484;2023-03-26T11:33:03;101034.78;;;19.83;100.00
26489;BME280;14169;43.684;10.484;2023-03-26T11:35:35;101033.66;;;19.87;100.00
26489;BME280;14169;43.684;10.484;2023-03-26T11:38:05;101031.59;;;19.78;100.00
26489;BME280;14169;43.684;10.484;2023-03-26T11:40:34;101026.34;;;19.91;100.00
26489;BME280;14169;43.684;10.484;2023-03-26T11:43:03;101017.19;;;19.96;100.00
26489;BME280;14169;43.684;10.484;2023-03-26T11:45:33;101010.84;;;19.99;100.00
26489;BME280;14169;43.684;10.484;2023-03-26T11:48:12;100994.69;;;20.03;100.00
26489;BME280;14169;43.684;10.484;2023-03-26T11:50:56;100978.19;;;20.12;100.00
26489;BME280;14169;43.684;10.484;2023-03-26T11:53:27;100972.16;;;20.10;100.00
26489;BME280;14169;43.684;10.484;2023-03-26T11:56:04;100964.22;;;20.10;100.00
26489;BME280;14169;43.684;10.484;2023-03-26T11:58:44;100956.59;;;19.93;100.00
26489;BME280;14169;43.684;10.484;2023-03-26T12:01:17;100969.44;;;19.85;100.00
26489;BME280;14169;43.684;10.484;2023-03-26T12:04:10;100968.13;;;19.78;100.00
26489;BME280;14169;43.684;10.484;2023-03-26T12:06:37;100969.63;;;19.82;100.00
26489;BME280;14169;43.684;10.484;2023-03-26T12:09:03;100971.16;;;19.60;100.00
26489;BME280;14169;43.684;10.484;2023-03-26T12:11:29;100966.16;;;19.55;100.00
26489;BME280;14169;43.684;10.484;2023-03-26T12:14:00;100972.06;;;19.46;100.00
26489;BME280;14169;43.684;10.484;2023-03-26T12:16:26;100962.97;;;19.23;100.00
26489;BME280;14169;43.684;10.484;2023-03-26T12:21:23;100947.31;;;18.92;100.00
26489;BME280;14169;43.684;10.484;2023-03-26T12:26:20;100952.44;;;18.81;100.00
26489;BME280;14169;43.684;10.484;2023-03-26T12:28:54;100950.38;;;18.72;100.00
26489;BME280;14169;43.684;10.484;2023-03-26T12:31:20;100944.06;;;18.61;100.00
26489;BME280;14169;43.684;10.484;2023-03-26T12:34:22;100940.66;;;18.44;100.00
26489;BME280;14169;43.684;10.484;2023-03-26T12:36:54;100936.50;;;18.40;100.00
26489;BME280;14169;43.684;10.484;2023-03-26T12:41:56;100934.25;;;18.48;100.00
26489;BME280;14169;43.684;10.484;2023-03-26T12:44:44;100932.28;;;18.52;100.00
26489;BME280;14169;43.684;10.484;2023-03-26T12:47:24;100929.81;;;18.49;100.00
26489;BME280;14169;43.684;10.484;2023-03-26T12:49:50;100933.44;;;18.48;100.00
26489;BME280;14169;43.684;10.484;2023-03-26T12:52:25;100927.13;;;18.07;100.00
26489;BME280;14169;43.684;10.484;2023-03-26T12:57:35;100915.41;;;17.97;100.00
26489;BME280;14169;43.684;10.484;2023-03-26T13:00:21;100899.91;;;17.92;100.00
26489;BME280;14169;43.684;10.484;2023-03-26T13:08:35;100880.41;;;19.98;100.00
26489;BME280;14169;43.684;10.484;2023-03-26T13:14:17;100883.25;;;19.17;100.00
26489;BME280;14169;43.684;10.484;2023-03-26T13:16:58;100869.41;;;19.40;100.00
26489;BME280;14169;43.684;10.484;2023-03-26T13:19:38;100867.00;;;20.14;100.00
26489;BME280;14169;43.684;10.484;2023-03-26T13:25:04;100883.13;;;20.60;100.00
26489;BME280;14169;43.684;10.484;2023-03-26T13:30:05;100867.69;;;19.91;100.00
26489;BME280;14169;43.684;10.484;2023-03-26T13:32:54;100858.22;;;20.13;100.00
26489;BME280;14169;43.684;10.484;2023-03-26T13:35:38;100853.84;;;20.38;100.00
26489;BME280;14169;43.684;10.484;2023-03-26T13:46:35;100845.84;;;20.50;100.00
26489;BME280;14169;43.684;10.484;2023-03-26T13:49:11;100842.19;;;20.89;100.00
26489;BME280;14169;43.684;10.484;2023-03-26T13:51:50;100837.53;;;20.80;100.00
26489;BME280;14169;43.684;10.484;2023-03-26T13:54:31;100845.06;;;21.10;100.00
26489;BME280;14169;43.684;10.484;2023-03-26T13:57:05;100835.13;;;21.24;100.00
26489;BME280;14169;43.684;10.484;2023-03-26T14:02:10;100818.78;;;21.07;100.00
26489;BME280;14169;43.684;10.484;2023-03-26T14:04:43;100815.19;;;21.42;100.00
26489;BME280;14169;43.684;10.484;2023-03-26T14:07:37;100802.91;;;21.41;100.00
26489;BME280;14169;43.684;10.484;2023-03-26T14:10:16;100801.63;;;21.58;100.00
26489;BME280;14169;43.684;10.484;2023-03-26T14:12:59;100800.94;;;21.67;100.00
26489;BME280;14169;43.684;10.484;2023-03-26T14:15:34;100814.91;;;21.23;100.00
26489;BME280;14169;43.684;10.484;2023-03-26T14:26:25;100796.91;;;18.23;100.00
26489;BME280;14169;43.684;10.484;2023-03-26T14:42:30;100743.25;;;17.24;100.00
26489;BME280;14169;43.684;10.484;2023-03-26T14:48:11;100719.22;;;17.15;100.00
26489;BME280;14169;43.684;10.484;2023-03-26T14:53:25;100713.94;;;17.01;100.00
26489;BME280;14169;43.684;10.484;2023-03-26T15:12:46;100690.13;;;16.88;100.00
26489;BME280;14169;43.684;10.484;2023-03-26T15:15:49;100687.00;;;16.81;100.00
26489;BME280;14169;43.684;10.484;2023-03-26T15:41:52;100676.81;;;16.30;100.00
26489;BME280;14169;43.684;10.484;2023-03-26T15:44:53;100674.34;;;16.27;100.00
26489;BME280;14169;43.684;10.484;2023-03-26T15:50:29;100681.41;;;16.27;100.00
26489;BME280;14169;43.684;10.484;2023-03-26T15:58:29;100686.31;;;16.01;100.00
26489;BME280;14169;43.684;10.484;2023-03-26T16:03:47;100701.56;;;15.95;100.00
26489;BME280;14169;43.684;10.484;2023-03-26T16:12:44;100687.06;;;15.88;100.00
26489;BME280;14169;43.684;10.484;2023-03-26T16:15:30;100703.69;;;15.88;100.00
26489;BME280;14169;43.684;10.484;2023-03-26T16:23:26;100675.19;;;15.81;100.00
26489;BME280;14169;43.684;10.484;2023-03-26T16:25:57;100666.53;;;15.79;100.00
26489;BME280;14169;43.684;10.484;2023-03-26T16:33:37;100662.91;;;15.66;100.00
26489;BME280;14169;43.684;10.484;2023-03-26T16:41:25;100644.00;;;15.59;100.00
26489;BME280;14169;43.684;10.484;2023-03-26T16:52:31;100610.72;;;15.60;100.00
26489;BME280;14169;43.684;10.484;2023-03-26T16:55:11;100590.66;;;15.59;100.00
26489;BME280;14169;43.684;10.484;2023-03-26T16:58:03;100594.19;;;15.58;100.00
26489;BME280;14169;43.684;10.484;2023-03-26T17:01:09;100575.81;;;15.58;100.00
26489;BME280;14169;43.684;10.484;2023-03-26T17:04:17;100570.47;;;15.59;100.00
26489;BME280;14169;43.684;10.484;2023-03-26T17:10:01;100561.00;;;15.57;100.00
26489;BME280;14169;43.684;10.484;2023-03-26T17:20:56;100526.88;;;15.57;100.00
26489;BME280;14169;43.684;10.484;2023-03-26T17:26:23;100539.38;;;15.52;100.00
26489;BME280;14169;43.684;10.484;2023-03-26T17:36:57;100493.19;;;15.32;100.00
26489;BME280;14169;43.684;10.484;2023-03-26T17:42:16;100471.78;;;15.24;100.00
26489;BME280;14169;43.684;10.484;2023-03-26T17:45:06;100457.03;;;15.22;100.00
26489;BME280;14169;43.684;10.484;2023-03-26T17:47:39;100447.88;;;15.13;100.00
26489;BME280;14169;43.684;10.484;2023-03-26T17:50:25;100441.88;;;15.11;100.00
26489;BME280;14169;43.684;10.484;2023-03-26T17:55:42;100407.28;;;15.04;100.00
26489;BME280;14169;43.684;10.484;2023-03-26T17:58:32;100402.19;;;15.01;100.00
26489;BME280;14169;43.684;10.484;2023-03-26T18:03:38;100401.09;;;14.90;100.00
26489;BME280;14169;43.684;10.484;2023-03-26T18:06:13;100382.16;;;14.85;100.00
26489;BME280;14169;43.684;10.484;2023-03-26T18:09:31;100385.03;;;14.80;100.00
26489;BME280;14169;43.684;10.484;2023-03-26T18:14:26;100390.44;;;14.77;100.00
26489;BME280;14169;43.684;10.484;2023-03-26T18:16:59;100382.41;;;14.80;100.00
26489;BME280;14169;43.684;10.484;2023-03-26T18:19:25;100393.66;;;14.82;100.00
26489;BME280;14169;43.684;10.484;2023-03-26T18:22:02;100454.97;;;14.80;100.00
26489;BME280;14169;43.684;10.484;2023-03-26T18:24:30;100568.69;;;14.79;100.00
26489;BME280;14169;43.684;10.484;2023-03-26T18:27:00;100582.03;;;14.74;100.00
26489;BME280;14169;43.684;10.484;2023-03-26T18:29:31;100572.63;;;14.70;100.00
26489;BME280;14169;43.684;10.484;2023-03-26T18:34:45;100582.34;;;14.68;100.00
26489;BME280;14169;43.684;10.484;2023-03-26T18:37:19;100564.13;;;14.65;100.00
26489;BME280;14169;43.684;10.484;2023-03-26T18:40:08;100563.22;;;14.66;100.00